Time;durP1;ratioP1;P1;durP2;ratioP2;P2;SDS_P1;SDS_P2;PMS_P1;PMS_P2;Temp;Humidity;BMP_temperature;BMP_pressure;BME280_temperature;BME280_humidity;BME280_pressure;Samples;Min_cycle;Max_cycle;Signal;HPM_P1;HPM_P2
2022/04/07 00:01:09;;;;;;;9.45;7.85;;;;;;;;;;5022611;28;20131;-67
2022/04/07 00:03:35;;;;;;;9.73;7.32;;;;;;;;;;5019360;28;20037;-68
2022/04/07 00:06:01;;;;;;;14.60;8.10;;;;;;;;;;5029017;28;20025;-67
2022/04/07 00:08:27;;;;;;;12.20;7.22;;;;;;;;;;5025033;28;20026;-67
2022/04/07 00:10:53;;;;;;;16.02;7.82;;;;;;;;;;5022267;28;20090;-67
2022/04/07 00:13:19;;;;;;;7.72;6.80;;;;;;;;;;5019991;28;20026;-68
2022/04/07 00:15:45;;;;;;;8.82;7.07;;;;;;;;;;5018462;28;20076;-67
2022/04/07 00:18:11;;;;;;;7.60;6.65;;;;;;;;;;5023527;28;20037;-67
2022/04/07 00:20:37;;;;;;;6.97;6.28;;;;;;;;;;5023218;28;20029;-68
2022/04/07 00:23:03;;;;;;;9.93;6.43;;;;;;;;;;5017871;28;20029;-68
2022/04/07 00:25:30;;;;;;;12.50;6.90;;;;;;;;;;5026375;28;20022;-68
2022/04/07 00:27:56;;;;;;;9.32;6.43;;;;;;;;;;5014621;28;20041;-67
2022/04/07 00:30:22;;;;;;;6.80;6.10;;;;;;;;;;5022484;28;20060;-67
2022/04/07 00:32:49;;;;;;;9.38;6.15;;;;;;;;;;5029905;28;20025;-67
2022/04/07 00:35:16;;;;;;;7.88;7.03;;;;;;;;;;5016427;28;20034;-67
2022/04/07 00:37:42;;;;;;;9.73;5.85;;;;;;;;;;5019687;28;20029;-67
2022/04/07 00:40:10;;;;;;;9.68;5.60;;;;;;;;;;5017519;28;20112;-67
2022/04/07 00:42:50;;;;;;;7.03;6.10;;;;;;;;;;5014186;28;20042;-67
2022/04/07 00:45:17;;;;;;;8.07;6.15;;;;;;;;;;5021770;28;20038;-68
2022/04/07 00:47:44;;;;;;;6.75;5.93;;;;;;;;;;5020282;28;20127;-68
2022/04/07 00:50:11;;;;;;;8.50;4.55;;;;;;;;;;5024076;28;20386;-67
2022/04/07 00:52:44;;;;;;;6.05;4.57;;;;;;;;;;5015576;28;20113;-67
2022/04/07 00:55:11;;;;;;;6.80;4.93;;;;;;;;;;5020486;28;20030;-68
2022/04/07 00:57:40;;;;;;;4.53;3.92;;;;;;;;;;5013416;28;20025;-67
2022/04/07 01:00:09;;;;;;;5.03;3.70;;;;;;;;;;5016410;28;20112;-68
2022/04/07 01:02:36;;;;;;;8.63;4.05;;;;;;;;;;5021974;28;20022;-67
2022/04/07 01:05:05;;;;;;;5.63;3.33;;;;;;;;;;5017971;28;20042;-67
2022/04/07 01:07:36;;;;;;;4.75;3.47;;;;;;;;;;5014843;28;20036;-68
2022/04/07 01:10:03;;;;;;;3.42;3.13;;;;;;;;;;5013669;28;20371;-67
2022/04/07 01:12:29;;;;;;;4.03;3.42;;;;;;;;;;5019366;28;20034;-68
2022/04/07 01:15:00;;;;;;;4.25;3.60;;;;;;;;;;5022213;28;20030;-68
2022/04/07 01:17:26;;;;;;;3.40;3.10;;;;;;;;;;5023272;28;20056;-67
2022/04/07 01:19:53;;;;;;;3.53;3.17;;;;;;;;;;5025728;28;20033;-67
2022/04/07 01:22:20;;;;;;;2.92;2.67;;;;;;;;;;5014971;28;20026;-67
2022/04/07 01:24:47;;;;;;;6.05;2.65;;;;;;;;;;5012648;28;20065;-68
2022/04/07 01:27:14;;;;;;;3.47;2.83;;;;;;;;;;5020464;28;20443;-67
2022/04/07 01:29:40;;;;;;;2.83;2.63;;;;;;;;;;5020187;28;20030;-67
2022/04/07 01:32:14;;;;;;;2.47;2.28;;;;;;;;;;5010817;28;20072;-67
2022/04/07 01:34:40;;;;;;;4.18;2.70;;;;;;;;;;5017288;28;20022;-67
2022/04/07 01:37:08;;;;;;;3.05;2.60;;;;;;;;;;5011689;28;20029;-67
2022/04/07 01:39:36;;;;;;;2.50;2.30;;;;;;;;;;5015963;28;20664;-67
2022/04/07 01:42:02;;;;;;;3.47;2.40;;;;;;;;;;5025310;28;20223;-67
2022/04/07 01:44:29;;;;;;;2.58;2.25;;;;;;;;;;5018859;28;20030;-67
2022/04/07 01:46:56;;;;;;;4.18;1.95;;;;;;;;;;5022950;28;20494;-67
2022/04/07 01:49:23;;;;;;;2.75;2.10;;;;;;;;;;5013536;28;20067;-67
2022/04/07 01:51:49;;;;;;;2.10;1.88;;;;;;;;;;5024619;28;20028;-67
2022/04/07 01:54:16;;;;;;;2.30;2.10;;;;;;;;;;5019849;28;20057;-67
2022/04/07 01:56:45;;;;;;;1.70;1.60;;;;;;;;;;5020308;28;20030;-67
2022/04/07 01:59:13;;;;;;;1.67;1.58;;;;;;;;;;5025569;28;20033;-67
2022/04/07 02:01:38;;;;;;;1.58;1.50;;;;;;;;;;5018523;28;20022;-67
2022/04/07 02:04:04;;;;;;;1.90;1.80;;;;;;;;;;5021683;28;20047;-67
2022/04/07 02:06:30;;;;;;;2.67;1.90;;;;;;;;;;5023113;28;20394;-67
2022/04/07 02:08:56;;;;;;;2.47;1.88;;;;;;;;;;5025840;28;20056;-67
2022/04/07 02:11:22;;;;;;;5.70;2.30;;;;;;;;;;5022178;28;20038;-67
2022/04/07 02:13:48;;;;;;;2.05;1.95;;;;;;;;;;5017243;28;20030;-68
2022/04/07 02:16:15;;;;;;;2.75;2.20;;;;;;;;;;5018719;28;20079;-67
2022/04/07 02:18:41;;;;;;;2.75;2.42;;;;;;;;;;5014821;28;20037;-67
2022/04/07 02:21:08;;;;;;;3.72;2.28;;;;;;;;;;5027884;28;20030;-67
2022/04/07 02:23:41;;;;;;;3.85;1.83;;;;;;;;;;5021632;28;20457;-67
2022/04/07 02:26:12;;;;;;;1.80;1.70;;;;;;;;;;5026129;28;20439;-67
2022/04/07 02:28:38;;;;;;;1.67;1.52;;;;;;;;;;5024757;28;20067;-67
2022/04/07 02:31:04;;;;;;;1.67;1.58;;;;;;;;;;5015285;28;20038;-67
2022/04/07 02:33:30;;;;;;;1.50;1.40;;;;;;;;;;5015086;28;20186;-67
2022/04/07 02:35:56;;;;;;;4.32;1.60;;;;;;;;;;5033780;28;20116;-67
2022/04/07 02:38:21;;;;;;;1.58;1.48;;;;;;;;;;5019292;28;20518;-67
2022/04/07 02:40:47;;;;;;;1.77;1.30;;;;;;;;;;5023547;28;20025;-67
2022/04/07 02:43:13;;;;;;;1.38;1.27;;;;;;;;;;5023924;28;20505;-67
2022/04/07 02:45:39;;;;;;;1.30;1.20;;;;;;;;;;5022095;28;20048;-67
2022/04/07 02:48:04;;;;;;;1.20;1.20;;;;;;;;;;5027104;28;20559;-66
2022/04/07 02:50:30;;;;;;;1.15;1.10;;;;;;;;;;5018649;28;20045;-67
2022/04/07 02:52:56;;;;;;;2.03;1.20;;;;;;;;;;5027082;28;20049;-67
2022/04/07 02:55:22;;;;;;;1.08;0.90;;;;;;;;;;5021044;28;20125;-67
2022/04/07 02:57:48;;;;;;;3.75;1.10;;;;;;;;;;5019520;28;20039;-67
2022/04/07 03:00:14;;;;;;;1.25;1.15;;;;;;;;;;5020705;28;20030;-67
2022/04/07 03:02:39;;;;;;;3.53;1.00;;;;;;;;;;5021759;28;20057;-67
2022/04/07 03:05:06;;;;;;;1.23;1.00;;;;;;;;;;5026072;28;20080;-67
2022/04/07 03:07:32;;;;;;;1.00;1.00;;;;;;;;;;5015730;28;20103;-67
2022/04/07 03:09:57;;;;;;;1.10;1.10;;;;;;;;;;5021722;28;20617;-68
2022/04/07 03:12:23;;;;;;;1.00;1.00;;;;;;;;;;5023442;28;20505;-67
2022/04/07 03:14:49;;;;;;;1.00;1.00;;;;;;;;;;5028464;28;20028;-67
2022/04/07 03:17:14;;;;;;;1.00;1.00;;;;;;;;;;5028783;28;22896;-67
2022/04/07 03:19:40;;;;;;;4.13;0.73;;;;;;;;;;5024091;28;20139;-67
2022/04/07 03:22:06;;;;;;;0.75;0.75;;;;;;;;;;5015167;28;20025;-67
2022/04/07 03:24:32;;;;;;;0.90;0.90;;;;;;;;;;5019974;28;20105;-68
2022/04/07 03:26:57;;;;;;;0.90;0.90;;;;;;;;;;5020042;28;20025;-67
2022/04/07 03:29:23;;;;;;;1.55;0.70;;;;;;;;;;5015375;28;20029;-65
2022/04/07 03:31:49;;;;;;;0.80;0.80;;;;;;;;;;5025869;28;20018;-67
2022/04/07 03:34:14;;;;;;;1.52;0.80;;;;;;;;;;5018324;28;20087;-67
2022/04/07 03:36:40;;;;;;;0.70;0.70;;;;;;;;;;5012982;28;20025;-67
2022/04/07 03:39:06;;;;;;;1.58;0.90;;;;;;;;;;5029763;28;20029;-67
2022/04/07 03:41:32;;;;;;;0.88;0.88;;;;;;;;;;5021031;28;20502;-68
2022/04/07 03:43:58;;;;;;;0.70;0.70;;;;;;;;;;5022692;28;20038;-68
2022/04/07 03:46:24;;;;;;;1.52;0.93;;;;;;;;;;5022672;28;20211;-67
2022/04/07 03:48:50;;;;;;;0.77;0.77;;;;;;;;;;5021313;28;20044;-68
2022/04/07 03:51:17;;;;;;;0.70;0.70;;;;;;;;;;5015853;28;20033;-68
2022/04/07 03:53:43;;;;;;;0.88;0.88;;;;;;;;;;5018923;28;20033;-68
2022/04/07 03:56:09;;;;;;;4.13;0.85;;;;;;;;;;5015740;28;20105;-67
2022/04/07 03:58:35;;;;;;;0.63;0.63;;;;;;;;;;5023095;28;20137;-67
2022/04/07 04:01:00;;;;;;;0.60;0.60;;;;;;;;;;5014822;28;20079;-68
2022/04/07 04:03:26;;;;;;;0.75;0.75;;;;;;;;;;5015737;28;20030;-67
2022/04/07 04:05:52;;;;;;;0.57;0.57;;;;;;;;;;5031798;28;20041;-68
2022/04/07 04:08:18;;;;;;;1.33;0.80;;;;;;;;;;5019468;28;20036;-68
2022/04/07 04:10:43;;;;;;;1.48;0.90;;;;;;;;;;5020071;28;20024;-65
2022/04/07 04:13:09;;;;;;;3.22;0.80;;;;;;;;;;5018609;28;20474;-67
2022/04/07 04:15:35;;;;;;;4.13;0.77;;;;;;;;;;5013833;28;20117;-67
2022/04/07 04:18:00;;;;;;;1.95;0.70;;;;;;;;;;5021979;28;20513;-67
2022/04/07 04:20:26;;;;;;;1.70;0.70;;;;;;;;;;5014337;28;20448;-67
2022/04/07 04:22:52;;;;;;;0.80;0.60;;;;;;;;;;5019691;28;20029;-67
2022/04/07 04:25:18;;;;;;;1.10;1.02;;;;;;;;;;5021082;28;20045;-68
2022/04/07 04:27:44;;;;;;;2.70;0.70;;;;;;;;;;5020647;28;20385;-67
2022/04/07 04:30:10;;;;;;;0.82;0.75;;;;;;;;;;5022395;28;20037;-67
2022/04/07 04:32:36;;;;;;;0.98;0.60;;;;;;;;;;5023217;28;20029;-67
2022/04/07 04:35:03;;;;;;;0.60;0.60;;;;;;;;;;5017400;28;20457;-67
2022/04/07 04:37:28;;;;;;;0.77;0.50;;;;;;;;;;5027310;28;20067;-67
2022/04/07 04:39:54;;;;;;;4.03;1.05;;;;;;;;;;5017910;28;20065;-67
2022/04/07 04:42:21;;;;;;;0.55;0.55;;;;;;;;;;5016677;28;20506;-67
2022/04/07 04:44:47;;;;;;;0.60;0.60;;;;;;;;;;5027006;28;20029;-67
2022/04/07 04:47:13;;;;;;;1.08;0.75;;;;;;;;;;5029947;28;20032;-68
2022/04/07 04:49:42;;;;;;;1.20;0.60;;;;;;;;;;5021524;28;20048;-67
2022/04/07 04:52:10;;;;;;;0.70;0.60;;;;;;;;;;5025026;28;20037;-68
2022/04/07 04:54:35;;;;;;;0.57;0.57;;;;;;;;;;5011400;28;20537;-67
2022/04/07 04:57:01;;;;;;;0.65;0.60;;;;;;;;;;5019568;28;20402;-68
2022/04/07 04:59:27;;;;;;;0.82;0.60;;;;;;;;;;5016739;28;20026;-68
2022/04/07 05:01:53;;;;;;;0.50;0.50;;;;;;;;;;5024189;28;20030;-67
2022/04/07 05:04:19;;;;;;;2.25;0.80;;;;;;;;;;5019216;28;20101;-67
2022/04/07 05:06:45;;;;;;;1.02;0.80;;;;;;;;;;5015760;28;20025;-67
2022/04/07 05:09:11;;;;;;;1.30;0.70;;;;;;;;;;5014015;28;20109;-68
2022/04/07 05:11:36;;;;;;;1.85;0.75;;;;;;;;;;5015635;28;20534;-67
2022/04/07 05:14:02;;;;;;;0.60;0.60;;;;;;;;;;5020799;28;20037;-67
2022/04/07 05:16:28;;;;;;;0.90;0.90;;;;;;;;;;5024703;28;20025;-68
2022/04/07 05:18:53;;;;;;;0.60;0.60;;;;;;;;;;5019513;28;20033;-68
2022/04/07 05:21:19;;;;;;;1.20;0.75;;;;;;;;;;5017574;28;20124;-68
2022/04/07 05:23:45;;;;;;;1.88;1.00;;;;;;;;;;5014536;28;20463;-67
2022/04/07 05:26:14;;;;;;;1.75;0.95;;;;;;;;;;5022749;28;20116;-67
2022/04/07 05:28:41;;;;;;;2.45;0.73;;;;;;;;;;5029816;28;20466;-67
2022/04/07 05:31:07;;;;;;;1.98;0.50;;;;;;;;;;5027572;28;20112;-68
2022/04/07 05:33:33;;;;;;;1.00;0.90;;;;;;;;;;5016813;28;20034;-67
2022/04/07 05:35:58;;;;;;;1.13;0.82;;;;;;;;;;5032842;28;20064;-67
2022/04/07 05:38:24;;;;;;;1.15;0.80;;;;;;;;;;5019472;28;20037;-67
2022/04/07 05:40:50;;;;;;;1.13;0.80;;;;;;;;;;5022375;28;20025;-67
2022/04/07 05:43:16;;;;;;;3.90;1.00;;;;;;;;;;5023379;28;20129;-68
2022/04/07 05:45:44;;;;;;;2.53;0.80;;;;;;;;;;5021322;28;20121;-67
2022/04/07 05:48:10;;;;;;;2.80;1.05;;;;;;;;;;5021879;28;20105;-67
2022/04/07 05:50:36;;;;;;;1.13;1.02;;;;;;;;;;5038848;28;20124;-67
2022/04/07 05:53:02;;;;;;;2.00;1.20;;;;;;;;;;5026659;28;20449;-67
2022/04/07 05:55:28;;;;;;;4.10;1.20;;;;;;;;;;5014871;28;20029;-68
2022/04/07 05:57:54;;;;;;;3.20;2.95;;;;;;;;;;5025410;28;20057;-67
2022/04/07 06:00:20;;;;;;;2.42;2.22;;;;;;;;;;5023260;28;20038;-68
2022/04/07 06:02:48;;;;;;;2.60;1.30;;;;;;;;;;5031454;28;20498;-67
2022/04/07 06:05:18;;;;;;;1.65;1.27;;;;;;;;;;5021381;28;20060;-67
2022/04/07 06:07:44;;;;;;;1.52;1.42;;;;;;;;;;5019174;28;20057;-67
2022/04/07 06:10:10;;;;;;;2.00;1.45;;;;;;;;;;5020222;28;20068;-67
2022/04/07 06:12:38;;;;;;;4.45;1.30;;;;;;;;;;5018602;28;20087;-67
2022/04/07 06:15:04;;;;;;;1.17;1.10;;;;;;;;;;5015342;28;20153;-67
2022/04/07 06:17:34;;;;;;;6.53;1.40;;;;;;;;;;5014459;28;21057;-54
2022/04/07 06:20:00;;;;;;;3.40;1.88;;;;;;;;;;5021533;28;20045;-67
2022/04/07 06:22:25;;;;;;;2.08;1.50;;;;;;;;;;5027403;28;20030;-67
2022/04/07 06:24:51;;;;;;;1.45;1.35;;;;;;;;;;5022550;28;20041;-67
2022/04/07 06:27:17;;;;;;;5.90;1.67;;;;;;;;;;5023817;28;20503;-67
2022/04/07 06:29:42;;;;;;;2.47;1.60;;;;;;;;;;5027526;28;20088;-67
2022/04/07 06:32:08;;;;;;;2.17;1.17;;;;;;;;;;5019057;28;20034;-67
2022/04/07 06:34:34;;;;;;;3.55;1.58;;;;;;;;;;5021962;28;20024;-67
2022/04/07 06:37:00;;;;;;;1.30;1.20;;;;;;;;;;5024988;28;20104;-67
2022/04/07 06:39:26;;;;;;;7.90;1.90;;;;;;;;;;5025191;28;20026;-66
2022/04/07 06:41:52;;;;;;;5.60;1.73;;;;;;;;;;5020379;28;20095;-66
2022/04/07 06:44:19;;;;;;;6.30;2.17;;;;;;;;;;5020768;28;20044;-67
2022/04/07 06:46:45;;;;;;;2.72;1.42;;;;;;;;;;5013654;28;20037;-67
2022/04/07 06:49:11;;;;;;;1.98;1.48;;;;;;;;;;5016183;28;20079;-67
2022/04/07 06:51:37;;;;;;;1.25;1.10;;;;;;;;;;5018862;28;20100;-67
2022/04/07 06:54:03;;;;;;;1.63;1.52;;;;;;;;;;5029236;28;20578;-67
2022/04/07 06:56:28;;;;;;;2.50;1.10;;;;;;;;;;5019980;28;20036;-67
2022/04/07 06:58:54;;;;;;;2.75;1.20;;;;;;;;;;5020027;28;20105;-67
2022/04/07 07:01:21;;;;;;;3.05;1.65;;;;;;;;;;5016969;28;20466;-67
2022/04/07 07:03:46;;;;;;;2.75;1.20;;;;;;;;;;5020910;28;20053;-67
2022/04/07 07:06:12;;;;;;;2.10;1.20;;;;;;;;;;5020670;28;20653;-67
2022/04/07 07:08:40;;;;;;;3.15;1.40;;;;;;;;;;5019424;28;20033;-67
2022/04/07 07:11:06;;;;;;;7.93;1.10;;;;;;;;;;5017870;28;20064;-67
2022/04/07 07:13:33;;;;;;;1.10;1.00;;;;;;;;;;5016097;28;20123;-67
2022/04/07 07:15:58;;;;;;;2.80;2.53;;;;;;;;;;5016815;28;20043;-67
2022/04/07 07:18:24;;;;;;;4.75;1.58;;;;;;;;;;5009531;28;20034;-67
2022/04/07 07:20:50;;;;;;;2.85;1.27;;;;;;;;;;5021241;28;20108;-67
2022/04/07 07:23:16;;;;;;;1.25;1.15;;;;;;;;;;5021196;28;20386;-68
2022/04/07 07:25:42;;;;;;;1.50;1.40;;;;;;;;;;5009564;28;20038;-67
2022/04/07 07:28:09;;;;;;;1.10;1.00;;;;;;;;;;5015900;28;20029;-68
2022/04/07 07:30:34;;;;;;;1.77;0.93;;;;;;;;;;5014614;28;20037;-67
2022/04/07 07:33:02;;;;;;;3.80;0.80;;;;;;;;;;5017407;28;20606;-67
2022/04/07 07:35:28;;;;;;;1.73;0.90;;;;;;;;;;5019534;28;20529;-67
2022/04/07 07:37:55;;;;;;;1.92;0.70;;;;;;;;;;5011683;28;20066;-67
2022/04/07 07:40:23;;;;;;;0.70;0.70;;;;;;;;;;5015825;28;20038;-67
2022/04/07 07:42:52;;;;;;;0.80;0.80;;;;;;;;;;5018260;28;20038;-67
2022/04/07 07:45:18;;;;;;;0.77;0.73;;;;;;;;;;5011589;28;20029;-67
2022/04/07 07:47:44;;;;;;;1.40;0.80;;;;;;;;;;5016362;28;20028;-68
2022/04/07 07:50:10;;;;;;;1.55;0.65;;;;;;;;;;5023415;28;20037;-67
2022/04/07 07:52:35;;;;;;;5.13;0.80;;;;;;;;;;5022157;28;20022;-67
2022/04/07 07:55:02;;;;;;;1.02;0.60;;;;;;;;;;5012281;28;20093;-67
2022/04/07 07:57:28;;;;;;;1.52;0.70;;;;;;;;;;5013527;28;20084;-66
2022/04/07 07:59:54;;;;;;;3.40;0.88;;;;;;;;;;5020912;28;20033;-67
2022/04/07 08:02:19;;;;;;;5.03;0.60;;;;;;;;;;5016034;28;20030;-68
2022/04/07 08:04:46;;;;;;;2.90;0.80;;;;;;;;;;5025043;28;20017;-68
2022/04/07 08:07:11;;;;;;;1.27;0.63;;;;;;;;;;5016114;28;20048;-68
2022/04/07 08:09:37;;;;;;;2.00;0.63;;;;;;;;;;5013033;28;22008;-68
2022/04/07 08:12:03;;;;;;;0.60;0.60;;;;;;;;;;5027062;28;20045;-68
2022/04/07 08:14:30;;;;;;;0.60;0.57;;;;;;;;;;5022922;28;20087;-67
2022/04/07 08:16:56;;;;;;;4.60;0.70;;;;;;;;;;5022596;28;20434;-68
2022/04/07 08:19:22;;;;;;;0.98;0.57;;;;;;;;;;5026701;28;20037;-68
2022/04/07 08:21:48;;;;;;;0.60;0.60;;;;;;;;;;5019341;28;20029;-68
2022/04/07 08:24:16;;;;;;;2.00;0.60;;;;;;;;;;5021571;28;20501;-67
2022/04/07 08:26:42;;;;;;;1.38;0.60;;;;;;;;;;5026022;28;20041;-67
2022/04/07 08:29:09;;;;;;;1.60;0.60;;;;;;;;;;5024704;28;20172;-68
2022/04/07 08:31:35;;;;;;;2.53;0.60;;;;;;;;;;5021980;28;20669;-68
2022/04/07 08:34:00;;;;;;;1.77;0.60;;;;;;;;;;5019387;28;20024;-68
2022/04/07 08:36:26;;;;;;;0.80;0.57;;;;;;;;;;5026925;28;20215;-67
2022/04/07 08:38:51;;;;;;;1.13;0.68;;;;;;;;;;5021039;28;20398;-67
2022/04/07 08:41:18;;;;;;;2.88;0.70;;;;;;;;;;5021429;28;20036;-67
2022/04/07 08:43:44;;;;;;;4.65;0.70;;;;;;;;;;5027292;28;20079;-68
2022/04/07 08:46:11;;;;;;;3.88;0.73;;;;;;;;;;5019931;28;20487;-67
2022/04/07 08:48:42;;;;;;;0.82;0.50;;;;;;;;;;5015512;28;20596;-67
2022/04/07 08:51:09;;;;;;;1.30;0.77;;;;;;;;;;5022312;28;20048;-68
2022/04/07 08:53:36;;;;;;;0.55;0.55;;;;;;;;;;5021948;28;20037;-67
2022/04/07 08:56:02;;;;;;;2.22;0.65;;;;;;;;;;5022345;28;20037;-67
2022/04/07 08:58:28;;;;;;;2.47;0.50;;;;;;;;;;5017730;28;20033;-67
2022/04/07 09:00:54;;;;;;;2.58;0.60;;;;;;;;;;5018282;28;20032;-67
2022/04/07 09:03:20;;;;;;;3.40;0.60;;;;;;;;;;5012194;28;20042;-67
2022/04/07 09:06:00;;;;;;;2.10;0.88;;;;;;;;;;5032921;28;20393;-66
2022/04/07 09:08:38;;;;;;;2.22;0.63;;;;;;;;;;5024162;28;20421;-67
2022/04/07 09:11:06;;;;;;;3.88;1.00;;;;;;;;;;5018310;28;20065;-67
2022/04/07 09:13:39;;;;;;;1.92;0.80;;;;;;;;;;5018465;28;20030;-67
2022/04/07 09:16:15;;;;;;;5.55;0.88;;;;;;;;;;5022617;28;20028;-67
2022/04/07 09:18:43;;;;;;;2.65;0.50;;;;;;;;;;5015098;28;20869;-67
2022/04/07 09:21:22;;;;;;;4.57;0.82;;;;;;;;;;5023234;28;20056;-67
2022/04/07 09:23:48;;;;;;;6.10;0.80;;;;;;;;;;5022034;28;20042;-67
2022/04/07 09:26:15;;;;;;;3.10;1.08;;;;;;;;;;5026602;28;20358;-68
2022/04/07 09:28:42;;;;;;;1.33;0.73;;;;;;;;;;5018402;28;20028;-68
2022/04/07 09:31:15;;;;;;;4.03;0.73;;;;;;;;;;5015523;28;20044;-68
2022/04/07 09:33:41;;;;;;;1.85;0.80;;;;;;;;;;5010051;28;20033;-67
2022/04/07 09:36:10;;;;;;;1.02;0.52;;;;;;;;;;5025602;28;20437;-68
2022/04/07 09:38:37;;;;;;;6.75;0.68;;;;;;;;;;5018705;28;20496;-68
2022/04/07 09:41:10;;;;;;;1.60;0.63;;;;;;;;;;5026440;28;20439;-67
2022/04/07 09:43:44;;;;;;;1.23;0.60;;;;;;;;;;5017475;28;20059;-68
2022/04/07 09:46:11;;;;;;;2.70;0.57;;;;;;;;;;5020053;28;20108;-68
2022/04/07 09:48:38;;;;;;;2.42;0.63;;;;;;;;;;5021324;28;20053;-68
2022/04/07 09:51:06;;;;;;;2.83;0.50;;;;;;;;;;5017183;28;20091;-67
2022/04/07 09:53:39;;;;;;;3.97;0.90;;;;;;;;;;5017405;28;20034;-67
2022/04/07 09:56:06;;;;;;;1.42;0.75;;;;;;;;;;5017271;28;20080;-67
2022/04/07 09:58:33;;;;;;;1.40;0.70;;;;;;;;;;5028848;28;20618;-68
2022/04/07 10:01:02;;;;;;;1.95;0.70;;;;;;;;;;5019320;28;20128;-67
2022/04/07 10:03:30;;;;;;;1.70;1.13;;;;;;;;;;5026845;28;20026;-68
2022/04/07 10:05:57;;;;;;;1.73;1.10;;;;;;;;;;5023953;28;20033;-67
2022/04/07 10:08:23;;;;;;;1.98;1.02;;;;;;;;;;5019667;28;20117;-67
2022/04/07 10:10:49;;;;;;;3.88;0.90;;;;;;;;;;5014640;28;20041;-68
2022/04/07 10:13:15;;;;;;;1.08;0.90;;;;;;;;;;5021453;28;20033;-67
2022/04/07 10:15:42;;;;;;;1.73;1.00;;;;;;;;;;5018735;28;20079;-68
2022/04/07 10:18:16;;;;;;;3.83;0.70;;;;;;;;;;5018706;28;20064;-67
2022/04/07 10:20:47;;;;;;;2.22;1.73;;;;;;;;;;5024972;28;20053;-67
2022/04/07 10:23:35;;;;;;;0.98;0.90;;;;;;;;;;5013962;28;20030;-68
2022/04/07 10:26:03;;;;;;;1.63;0.93;;;;;;;;;;5018462;28;20533;-68
2022/04/07 10:28:29;;;;;;;2.35;0.80;;;;;;;;;;5025330;28;20088;-67
2022/04/07 10:30:55;;;;;;;1.63;1.00;;;;;;;;;;5023256;28;20037;-67
2022/04/07 10:33:42;;;;;;;3.40;1.40;;;;;;;;;;5014286;28;20033;-67
2022/04/07 10:36:18;;;;;;;1.42;1.23;;;;;;;;;;5016960;28;20104;-67
2022/04/07 10:38:51;;;;;;;1.80;1.08;;;;;;;;;;5017302;28;20091;-65
2022/04/07 10:41:35;;;;;;;;;;;;;;;;;;5014058;28;20479;-66
2022/04/07 10:44:15;;;;;;;2.80;1.25;;;;;;;;;;5021917;28;19917;-66
2022/04/07 10:46:41;;;;;;;2.45;1.65;;;;;;;;;;5020493;28;20048;-65
2022/04/07 10:49:12;;;;;;;4.38;1.20;;;;;;;;;;5016085;28;20029;-66
2022/04/07 10:51:45;;;;;;;2.47;1.15;;;;;;;;;;5016419;28;20028;-66
2022/04/07 10:54:12;;;;;;;2.85;1.38;;;;;;;;;;5024763;28;20038;-67
2022/04/07 10:56:39;;;;;;;3.47;1.20;;;;;;;;;;5020342;28;20029;-66
2022/04/07 10:59:12;;;;;;;2.97;1.38;;;;;;;;;;5010847;28;20076;-66
2022/04/07 11:01:38;;;;;;;1.85;1.35;;;;;;;;;;5020299;28;20029;-67
2022/04/07 11:04:21;;;;;;;2.83;1.13;;;;;;;;;;5016421;28;20034;-66
2022/04/07 11:07:09;;;;;;;2.95;1.63;;;;;;;;;;5018304;28;20117;-66
2022/04/07 11:09:53;;;;;;;7.03;1.63;;;;;;;;;;5016451;28;20405;-67
2022/04/07 11:12:29;;;;;;;2.63;1.30;;;;;;;;;;5021154;28;20057;-67
2022/04/07 11:15:01;;;;;;;3.05;1.38;;;;;;;;;;5019690;28;20549;-67
2022/04/07 11:17:41;;;;;;;5.90;1.70;;;;;;;;;;5019251;28;20119;-67
2022/04/07 11:20:26;;;;;;;2.78;1.80;;;;;;;;;;5014459;28;20030;-67
2022/04/07 11:22:58;;;;;;;3.85;2.00;;;;;;;;;;5014776;28;20026;-67
2022/04/07 11:25:41;;;;;;;6.85;2.50;;;;;;;;;;5016690;28;20029;-67
2022/04/07 11:28:14;;;;;;;5.38;2.55;;;;;;;;;;5014517;28;20068;-67
2022/04/07 11:30:49;;;;;;;3.63;2.78;;;;;;;;;;5013461;28;20589;-66
2022/04/07 11:33:21;;;;;;;5.20;3.28;;;;;;;;;;5013224;28;20582;-67
2022/04/07 11:36:07;;;;;;;5.35;3.20;;;;;;;;;;5022938;28;20045;-66
2022/04/07 11:38:35;;;;;;;4.40;3.35;;;;;;;;;;5015243;28;20201;-67
2022/04/07 11:41:03;;;;;;;8.32;3.20;;;;;;;;;;5022279;28;20026;-67
2022/04/07 11:43:30;;;;;;;4.72;3.17;;;;;;;;;;5015836;28;20079;-67
2022/04/07 11:45:56;;;;;;;6.35;3.30;;;;;;;;;;5023932;28;20041;-67
2022/04/07 11:48:23;;;;;;;4.70;2.95;;;;;;;;;;5016340;28;20053;-66
2022/04/07 11:50:52;;;;;;;4.78;3.15;;;;;;;;;;5019792;28;20115;-67
2022/04/07 11:53:18;;;;;;;6.20;2.90;;;;;;;;;;5015083;28;20038;-67
2022/04/07 11:55:43;;;;;;;3.47;2.63;;;;;;;;;;5018387;28;20520;-67
2022/04/07 11:58:10;;;;;;;5.07;2.75;;;;;;;;;;5011664;28;20040;-67
2022/04/07 12:00:36;;;;;;;9.50;2.47;;;;;;;;;;5008917;28;20060;-67
2022/04/07 12:03:03;;;;;;;5.90;3.25;;;;;;;;;;5017019;28;20103;-68
2022/04/07 12:05:34;;;;;;;3.25;2.28;;;;;;;;;;5014559;28;20402;-67
2022/04/07 12:08:13;;;;;;;4.88;2.58;;;;;;;;;;5014111;28;20060;-67
2022/04/07 12:10:40;;;;;;;9.00;3.47;;;;;;;;;;5015029;28;20438;-68
2022/04/07 12:13:07;;;;;;;6.78;3.00;;;;;;;;;;5019056;28;20136;-68
2022/04/07 12:15:36;;;;;;;6.55;2.55;;;;;;;;;;5018977;28;20040;-67
2022/04/07 12:18:03;;;;;;;3.03;2.17;;;;;;;;;;5017600;28;20080;-67
2022/04/07 12:20:29;;;;;;;5.47;2.72;;;;;;;;;;5011811;28;20119;-67
2022/04/07 12:23:11;;;;;;;2.92;2.30;;;;;;;;;;5015125;28;20021;-67
2022/04/07 12:25:39;;;;;;;3.88;2.47;;;;;;;;;;5016286;28;20242;-67
2022/04/07 12:28:11;;;;;;;3.85;2.65;;;;;;;;;;5013849;28;20037;-64
2022/04/07 12:30:55;;;;;;;4.72;2.55;;;;;;;;;;5016408;28;20071;-67
2022/04/07 12:33:40;;;;;;;2.97;2.22;;;;;;;;;;5009559;28;20092;-67
2022/04/07 12:36:07;;;;;;;5.93;2.55;;;;;;;;;;5018816;28;21175;-67
2022/04/07 12:38:35;;;;;;;6.38;2.10;;;;;;;;;;5018641;28;20389;-67
2022/04/07 12:41:15;;;;;;;6.05;2.05;;;;;;;;;;5009534;28;20038;-68
2022/04/07 12:43:50;;;;;;;8.73;1.50;;;;;;;;;;5015695;28;20037;-67
2022/04/07 12:46:18;;;;;;;5.40;1.40;;;;;;;;;;5011888;28;20429;-67
2022/04/07 12:49:04;;;;;;;3.53;1.23;;;;;;;;;;5018295;28;20028;-67
2022/04/07 12:51:32;;;;;;;8.25;1.20;;;;;;;;;;5009478;28;20067;-68
2022/04/07 12:54:14;;;;;;;5.10;1.20;;;;;;;;;;5012716;28;20048;-68
2022/04/07 12:56:42;;;;;;;6.00;1.58;;;;;;;;;;5016522;28;20032;-67
2022/04/07 12:59:12;;;;;;;4.97;1.70;;;;;;;;;;5009894;28;20486;-67
2022/04/07 13:01:39;;;;;;;6.43;1.17;;;;;;;;;;5009803;28;20064;-67
2022/04/07 13:04:08;;;;;;;4.47;1.35;;;;;;;;;;5014224;28;20493;-67
2022/04/07 13:06:37;;;;;;;1.73;1.13;;;;;;;;;;5016882;28;20095;-68
2022/04/07 13:09:07;;;;;;;2.67;1.50;;;;;;;;;;5018744;28;20042;-67
2022/04/07 13:11:38;;;;;;;5.07;1.13;;;;;;;;;;5015582;28;20075;-68
2022/04/07 13:14:07;;;;;;;7.22;1.52;;;;;;;;;;5014588;28;20037;-67
2022/04/07 13:16:34;;;;;;;5.03;1.23;;;;;;;;;;5017951;28;20034;-65
2022/04/07 13:19:00;;;;;;;4.45;1.27;;;;;;;;;;5008830;28;20030;-66
2022/04/07 13:21:27;;;;;;;4.57;1.38;;;;;;;;;;5016855;28;20065;-67
2022/04/07 13:23:55;;;;;;;2.83;1.13;;;;;;;;;;5016370;28;20083;-66
2022/04/07 13:26:22;;;;;;;3.50;1.38;;;;;;;;;;5018514;28;20032;-67
2022/04/07 13:28:52;;;;;;;3.70;1.17;;;;;;;;;;5014962;28;20033;-67
2022/04/07 13:31:19;;;;;;;10.82;1.75;;;;;;;;;;5011976;28;20041;-67
2022/04/07 13:33:45;;;;;;;6.50;1.83;;;;;;;;;;5011854;28;20037;-67
2022/04/07 13:36:11;;;;;;;6.10;1.80;;;;;;;;;;5011678;28;20026;-67
2022/04/07 13:38:38;;;;;;;11.48;1.88;;;;;;;;;;5023148;28;20084;-68
2022/04/07 13:41:04;;;;;;;3.67;1.10;;;;;;;;;;5015955;28;20067;-67
2022/04/07 13:43:34;;;;;;;5.93;1.75;;;;;;;;;;5014713;28;20042;-67
2022/04/07 13:46:00;;;;;;;1.98;1.80;;;;;;;;;;5017428;28;20816;-67
2022/04/07 13:48:27;;;;;;;2.28;1.40;;;;;;;;;;5019875;28;20030;-66
2022/04/07 13:50:53;;;;;;;5.18;1.80;;;;;;;;;;5020662;28;20061;-67
2022/04/07 13:53:19;;;;;;;5.97;2.30;;;;;;;;;;5021242;28;20057;-67
2022/04/07 13:55:46;;;;;;;8.70;2.20;;;;;;;;;;5017911;28;20096;-67
2022/04/07 13:58:12;;;;;;;6.65;2.13;;;;;;;;;;5012403;28;20037;-67
2022/04/07 14:00:40;;;;;;;5.97;2.60;;;;;;;;;;5014561;28;20026;-67
2022/04/07 14:03:06;;;;;;;5.75;2.63;;;;;;;;;;5023449;28;20390;-67
2022/04/07 14:05:33;;;;;;;7.15;2.10;;;;;;;;;;5015656;28;20026;-67
2022/04/07 14:07:59;;;;;;;4.85;2.20;;;;;;;;;;5013132;28;20045;-66
2022/04/07 14:10:25;;;;;;;3.08;1.55;;;;;;;;;;5022136;28;20091;-67
2022/04/07 14:12:51;;;;;;;9.35;1.95;;;;;;;;;;5017121;28;20292;-66
2022/04/07 14:15:18;;;;;;;6.13;1.85;;;;;;;;;;5021452;28;20026;-66
2022/04/07 14:17:44;;;;;;;6.60;2.33;;;;;;;;;;5021338;28;20411;-66
2022/04/07 14:20:12;;;;;;;11.48;2.25;;;;;;;;;;5017890;28;20394;-66
2022/04/07 14:22:38;;;;;;;7.50;2.17;;;;;;;;;;5021919;28;20034;-67
2022/04/07 14:25:04;;;;;;;9.90;2.22;;;;;;;;;;5015703;28;20086;-67
2022/04/07 14:27:30;;;;;;;4.22;1.70;;;;;;;;;;5018813;28;20029;-67
2022/04/07 14:29:56;;;;;;;9.00;1.83;;;;;;;;;;5016325;28;20041;-67
2022/04/07 14:32:21;;;;;;;8.45;2.05;;;;;;;;;;5017680;28;20088;-67
2022/04/07 14:34:48;;;;;;;6.93;2.10;;;;;;;;;;5017080;28;20502;-67
2022/04/07 14:37:13;;;;;;;4.45;1.70;;;;;;;;;;5016829;28;20038;-67
2022/04/07 14:39:39;;;;;;;3.33;1.85;;;;;;;;;;5017258;28;20041;-66
2022/04/07 14:42:05;;;;;;;7.53;1.60;;;;;;;;;;5026128;28;20034;-62
2022/04/07 14:44:31;;;;;;;6.28;2.03;;;;;;;;;;5020588;28;20029;-66
2022/04/07 14:46:57;;;;;;;8.40;2.35;;;;;;;;;;5026479;28;20382;-67